sensor_id;sensor_type;location;lat;lon;timestamp;pressure;altitude;pressure_sealevel;temperature;humidity
17311;BME280;8773;43.300;0.394;2023-03-04T00:00:55;100455.03;;;7.80;57.84
17311;BME280;8773;43.300;0.394;2023-03-04T00:03:23;100449.97;;;7.76;57.63
17311;BME280;8773;43.300;0.394;2023-03-04T00:05:51;100448.63;;;7.82;58.25
17311;BME280;8773;43.300;0.394;2023-03-04T00:08:19;100448.75;;;7.81;57.56
17311;BME280;8773;43.300;0.394;2023-03-04T00:10:47;100446.22;;;7.68;57.63
17311;BME280;8773;43.300;0.394;2023-03-04T00:13:16;100445.03;;;7.61;58.18
17311;BME280;8773;43.300;0.394;2023-03-04T00:15:47;100449.94;;;7.65;58.54
17311;BME280;8773;43.300;0.394;2023-03-04T00:18:15;100446.56;;;7.63;57.87
17311;BME280;8773;43.300;0.394;2023-03-04T00:20:43;100448.88;;;7.68;58.29
17311;BME280;8773;43.300;0.394;2023-03-04T00:23:11;100454.06;;;7.69;57.79
17311;BME280;8773;43.300;0.394;2023-03-04T00:25:39;100449.13;;;7.54;58.39
17311;BME280;8773;43.300;0.394;2023-03-04T00:28:09;100453.09;;;7.48;59.33
17311;BME280;8773;43.300;0.394;2023-03-04T00:30:38;100456.25;;;7.53;59.03
17311;BME280;8773;43.300;0.394;2023-03-04T00:33:06;100441.00;;;7.44;58.90
17311;BME280;8773;43.300;0.394;2023-03-04T00:35:34;100464.41;;;7.39;60.00
17311;BME280;8773;43.300;0.394;2023-03-04T00:38:03;100463.47;;;7.51;58.80
17311;BME280;8773;43.300;0.394;2023-03-04T00:40:31;100453.84;;;7.61;58.60
17311;BME280;8773;43.300;0.394;2023-03-04T00:42:59;100455.50;;;7.73;58.80
17311;BME280;8773;43.300;0.394;2023-03-04T00:45:27;100462.75;;;7.71;58.87
17311;BME280;8773;43.300;0.394;2023-03-04T00:47:56;100459.63;;;7.66;58.26
17311;BME280;8773;43.300;0.394;2023-03-04T00:50:25;100457.34;;;7.62;58.77
17311;BME280;8773;43.300;0.394;2023-03-04T00:52:52;100453.81;;;7.72;58.46
17311;BME280;8773;43.300;0.394;2023-03-04T00:55:20;100456.25;;;7.75;58.85
17311;BME280;8773;43.300;0.394;2023-03-04T00:57:48;100461.44;;;7.77;58.64
17311;BME280;8773;43.300;0.394;2023-03-04T01:00:17;100465.19;;;7.86;58.73
17311;BME280;8773;43.300;0.394;2023-03-04T01:02:45;100459.13;;;7.72;58.71
17311;BME280;8773;43.300;0.394;2023-03-04T01:05:15;100459.50;;;7.79;59.24
17311;BME280;8773;43.300;0.394;2023-03-04T01:07:43;100455.66;;;7.83;58.93
17311;BME280;8773;43.300;0.394;2023-03-04T01:10:13;100457.94;;;7.88;59.10
17311;BME280;8773;43.300;0.394;2023-03-04T01:12:41;100453.97;;;7.93;58.88
17311;BME280;8773;43.300;0.394;2023-03-04T01:15:11;100454.94;;;7.92;58.98
17311;BME280;8773;43.300;0.394;2023-03-04T01:17:40;100447.78;;;7.93;58.22
17311;BME280;8773;43.300;0.394;2023-03-04T01:20:09;100445.13;;;7.93;58.08
17311;BME280;8773;43.300;0.394;2023-03-04T01:22:39;100447.91;;;7.91;58.16
17311;BME280;8773;43.300;0.394;2023-03-04T01:25:08;100442.22;;;7.85;58.81
17311;BME280;8773;43.300;0.394;2023-03-04T01:27:45;100446.81;;;7.83;58.11
17311;BME280;8773;43.300;0.394;2023-03-04T01:30:13;100443.19;;;7.72;59.36
17311;BME280;8773;43.300;0.394;2023-03-04T01:32:42;100447.69;;;7.61;60.36
17311;BME280;8773;43.300;0.394;2023-03-04T01:35:10;100451.75;;;7.65;59.25
17311;BME280;8773;43.300;0.394;2023-03-04T01:37:40;100440.19;;;7.55;60.09
17311;BME280;8773;43.300;0.394;2023-03-04T01:40:09;100446.31;;;7.44;59.72
17311;BME280;8773;43.300;0.394;2023-03-04T01:42:37;100438.84;;;7.49;59.47
17311;BME280;8773;43.300;0.394;2023-03-04T01:45:09;100427.72;;;7.44;59.85
17311;BME280;8773;43.300;0.394;2023-03-04T01:47:38;100426.75;;;7.45;60.47
17311;BME280;8773;43.300;0.394;2023-03-04T01:50:12;100424.94;;;7.46;60.11
17311;BME280;8773;43.300;0.394;2023-03-04T01:52:45;100429.66;;;7.42;59.97
17311;BME280;8773;43.300;0.394;2023-03-04T01:55:17;100426.03;;;7.43;60.32
17311;BME280;8773;43.300;0.394;2023-03-04T01:57:46;100427.69;;;7.33;60.42
17311;BME280;8773;43.300;0.394;2023-03-04T02:00:23;100434.09;;;7.30;61.42
17311;BME280;8773;43.300;0.394;2023-03-04T02:02:54;100429.63;;;7.20;61.65
17311;BME280;8773;43.300;0.394;2023-03-04T02:05:24;100430.09;;;7.25;61.68
17311;BME280;8773;43.300;0.394;2023-03-04T02:07:54;100418.66;;;7.35;61.29
17311;BME280;8773;43.300;0.394;2023-03-04T02:10:23;100415.75;;;7.38;60.72
17311;BME280;8773;43.300;0.394;2023-03-04T02:12:51;100421.44;;;7.45;60.35
17311;BME280;8773;43.300;0.394;2023-03-04T02:15:20;100416.75;;;7.49;60.12
17311;BME280;8773;43.300;0.394;2023-03-04T02:17:49;100418.31;;;7.51;59.88
17311;BME280;8773;43.300;0.394;2023-03-04T02:20:24;100427.81;;;7.31;61.47
17311;BME280;8773;43.300;0.394;2023-03-04T02:23:05;100426.06;;;6.97;62.48
17311;BME280;8773;43.300;0.394;2023-03-04T02:25:38;100425.13;;;7.20;60.90
17311;BME280;8773;43.300;0.394;2023-03-04T02:28:10;100420.34;;;7.36;60.76
17311;BME280;8773;43.300;0.394;2023-03-04T02:30:39;100431.81;;;7.37;60.12
17311;BME280;8773;43.300;0.394;2023-03-04T02:33:13;100422.63;;;7.19;61.18
17311;BME280;8773;43.300;0.394;2023-03-04T02:35:43;100425.28;;;7.30;61.24
17311;BME280;8773;43.300;0.394;2023-03-04T02:38:11;100420.22;;;7.38;60.78
17311;BME280;8773;43.300;0.394;2023-03-04T02:40:41;100408.03;;;7.35;60.07
17311;BME280;8773;43.300;0.394;2023-03-04T02:43:12;100410.31;;;7.40;59.95
17311;BME280;8773;43.300;0.394;2023-03-04T02:45:42;100408.63;;;7.39;59.73
17311;BME280;8773;43.300;0.394;2023-03-04T02:48:11;100405.75;;;7.42;59.31
17311;BME280;8773;43.300;0.394;2023-03-04T02:50:42;100402.59;;;7.48;59.41
17311;BME280;8773;43.300;0.394;2023-03-04T02:53:10;100400.91;;;7.47;59.32
17311;BME280;8773;43.300;0.394;2023-03-04T02:55:39;100398.50;;;7.44;60.25
17311;BME280;8773;43.300;0.394;2023-03-04T02:58:08;100388.59;;;7.46;60.38
17311;BME280;8773;43.300;0.394;2023-03-04T03:00:39;100389.44;;;7.47;60.00
17311;BME280;8773;43.300;0.394;2023-03-04T03:03:08;100384.72;;;7.39;60.66
17311;BME280;8773;43.300;0.394;2023-03-04T03:05:39;100380.34;;;7.27;60.70
17311;BME280;8773;43.300;0.394;2023-03-04T03:08:07;100389.53;;;7.12;61.11
17311;BME280;8773;43.300;0.394;2023-03-04T03:10:35;100389.06;;;7.18;61.16
17311;BME280;8773;43.300;0.394;2023-03-04T03:13:03;100390.50;;;7.10;61.37
17311;BME280;8773;43.300;0.394;2023-03-04T03:15:31;100388.13;;;6.84;61.05
17311;BME280;8773;43.300;0.394;2023-03-04T03:18:01;100380.03;;;6.74;61.77
17311;BME280;8773;43.300;0.394;2023-03-04T03:20:29;100386.75;;;6.78;62.65
17311;BME280;8773;43.300;0.394;2023-03-04T03:22:57;100376.16;;;6.78;61.79
17311;BME280;8773;43.300;0.394;2023-03-04T03:25:25;100381.63;;;6.88;62.38
17311;BME280;8773;43.300;0.394;2023-03-04T03:27:53;100382.13;;;6.93;61.38
17311;BME280;8773;43.300;0.394;2023-03-04T03:30:21;100377.91;;;7.01;61.76
17311;BME280;8773;43.300;0.394;2023-03-04T03:32:49;100381.53;;;7.00;61.10
17311;BME280;8773;43.300;0.394;2023-03-04T03:35:19;100375.31;;;6.77;62.42
17311;BME280;8773;43.300;0.394;2023-03-04T03:37:47;100373.53;;;6.89;62.43
17311;BME280;8773;43.300;0.394;2023-03-04T03:40:15;100370.09;;;6.65;62.53
17311;BME280;8773;43.300;0.394;2023-03-04T03:42:44;100372.25;;;6.60;63.33
17311;BME280;8773;43.300;0.394;2023-03-04T03:45:14;100367.50;;;6.76;62.83
17311;BME280;8773;43.300;0.394;2023-03-04T03:47:42;100362.91;;;6.89;63.08
17311;BME280;8773;43.300;0.394;2023-03-04T03:50:11;100360.16;;;6.91;62.14
17311;BME280;8773;43.300;0.394;2023-03-04T03:52:40;100359.06;;;6.93;62.90
17311;BME280;8773;43.300;0.394;2023-03-04T03:55:09;100353.91;;;7.03;62.23
17311;BME280;8773;43.300;0.394;2023-03-04T03:57:37;100359.59;;;6.63;64.02
17311;BME280;8773;43.300;0.394;2023-03-04T04:00:06;100353.94;;;6.68;63.17
17311;BME280;8773;43.300;0.394;2023-03-04T04:02:35;100360.72;;;6.72;63.00
17311;BME280;8773;43.300;0.394;2023-03-04T04:05:04;100362.41;;;6.73;63.36
17311;BME280;8773;43.300;0.394;2023-03-04T04:07:32;100359.03;;;6.82;63.94
17311;BME280;8773;43.300;0.394;2023-03-04T04:10:03;100360.25;;;6.89;63.27
17311;BME280;8773;43.300;0.394;2023-03-04T04:12:34;100369.03;;;6.78;63.70
17311;BME280;8773;43.300;0.394;2023-03-04T04:15:02;100363.72;;;6.78;62.92
17311;BME280;8773;43.300;0.394;2023-03-04T04:17:30;100367.00;;;6.82;63.46
17311;BME280;8773;43.300;0.394;2023-03-04T04:19:59;100371.34;;;6.83;62.55
17311;BME280;8773;43.300;0.394;2023-03-04T04:22:27;100370.41;;;6.36;65.27
17311;BME280;8773;43.300;0.394;2023-03-04T04:24:55;100377.19;;;6.40;65.27
17311;BME280;8773;43.300;0.394;2023-03-04T04:27:24;100374.78;;;6.61;64.63
17311;BME280;8773;43.300;0.394;2023-03-04T04:29:52;100366.16;;;6.82;63.35
17311;BME280;8773;43.300;0.394;2023-03-04T04:32:23;100370.09;;;6.65;64.11
17311;BME280;8773;43.300;0.394;2023-03-04T04:34:51;100371.81;;;6.77;63.39
17311;BME280;8773;43.300;0.394;2023-03-04T04:37:19;100376.41;;;6.86;62.57
17311;BME280;8773;43.300;0.394;2023-03-04T04:39:47;100371.16;;;6.97;62.95
17311;BME280;8773;43.300;0.394;2023-03-04T04:42:17;100370.91;;;7.00;62.00
17311;BME280;8773;43.300;0.394;2023-03-04T04:44:47;100367.53;;;6.98;62.73
17311;BME280;8773;43.300;0.394;2023-03-04T04:47:15;100366.34;;;7.02;61.68
17311;BME280;8773;43.300;0.394;2023-03-04T04:49:43;100366.56;;;6.99;61.73
17311;BME280;8773;43.300;0.394;2023-03-04T04:52:11;100375.00;;;6.93;62.25
17311;BME280;8773;43.300;0.394;2023-03-04T04:54:39;100369.66;;;6.82;63.27
17311;BME280;8773;43.300;0.394;2023-03-04T04:57:07;100372.78;;;6.76;62.62
17311;BME280;8773;43.300;0.394;2023-03-04T04:59:37;100364.47;;;6.81;63.10
17311;BME280;8773;43.300;0.394;2023-03-04T05:02:07;100367.22;;;6.79;62.44
17311;BME280;8773;43.300;0.394;2023-03-04T05:04:35;100363.88;;;6.88;62.52
17311;BME280;8773;43.300;0.394;2023-03-04T05:07:03;100370.75;;;6.91;62.24
17311;BME280;8773;43.300;0.394;2023-03-04T05:09:31;100384.00;;;6.80;62.41
17311;BME280;8773;43.300;0.394;2023-03-04T05:11:59;100389.06;;;6.48;63.63
17311;BME280;8773;43.300;0.394;2023-03-04T05:14:27;100369.03;;;6.67;63.00
17311;BME280;8773;43.300;0.394;2023-03-04T05:16:55;100374.22;;;6.80;61.63
17311;BME280;8773;43.300;0.394;2023-03-04T05:19:25;100383.63;;;6.73;62.19
17311;BME280;8773;43.300;0.394;2023-03-04T05:21:53;100379.97;;;6.63;63.68
17311;BME280;8773;43.300;0.394;2023-03-04T05:24:21;100388.75;;;6.39;63.38
17311;BME280;8773;43.300;0.394;2023-03-04T05:26:51;100383.41;;;6.28;64.68
17311;BME280;8773;43.300;0.394;2023-03-04T05:29:19;100392.13;;;6.41;64.23
17311;BME280;8773;43.300;0.394;2023-03-04T05:31:47;100385.91;;;6.42;64.36
17311;BME280;8773;43.300;0.394;2023-03-04T05:34:18;100382.41;;;6.66;62.71
17311;BME280;8773;43.300;0.394;2023-03-04T05:36:47;100393.53;;;6.71;63.31
17311;BME280;8773;43.300;0.394;2023-03-04T05:39:15;100400.06;;;6.54;63.26
17311;BME280;8773;43.300;0.394;2023-03-04T05:41:43;100387.72;;;6.66;63.42
17311;BME280;8773;43.300;0.394;2023-03-04T05:44:12;100392.69;;;6.70;63.72
17311;BME280;8773;43.300;0.394;2023-03-04T05:46:40;100393.03;;;6.66;63.16
17311;BME280;8773;43.300;0.394;2023-03-04T05:49:08;100394.72;;;6.67;62.43
17311;BME280;8773;43.300;0.394;2023-03-04T05:51:36;100398.22;;;6.67;62.54
17311;BME280;8773;43.300;0.394;2023-03-04T05:54:05;100404.38;;;6.79;62.99
17311;BME280;8773;43.300;0.394;2023-03-04T05:56:33;100398.16;;;6.91;62.62
17311;BME280;8773;43.300;0.394;2023-03-04T05:59:03;100397.94;;;6.94;61.77
17311;BME280;8773;43.300;0.394;2023-03-04T06:01:31;100407.94;;;6.91;62.64
17311;BME280;8773;43.300;0.394;2023-03-04T06:03:59;100410.13;;;6.62;62.92
17311;BME280;8773;43.300;0.394;2023-03-04T06:06:28;100412.84;;;6.73;62.42
17311;BME280;8773;43.300;0.394;2023-03-04T06:08:56;100409.94;;;6.76;61.95
17311;BME280;8773;43.300;0.394;2023-03-04T06:11:26;100412.84;;;6.84;62.30
17311;BME280;8773;43.300;0.394;2023-03-04T06:13:54;100416.22;;;6.86;62.48
17311;BME280;8773;43.300;0.394;2023-03-04T06:16:22;100419.63;;;6.88;62.23
17311;BME280;8773;43.300;0.394;2023-03-04T06:18:50;100417.25;;;6.96;62.23
17311;BME280;8773;43.300;0.394;2023-03-04T06:21:18;100424.53;;;6.82;62.83
17311;BME280;8773;43.300;0.394;2023-03-04T06:23:46;100426.84;;;6.51;62.54
17311;BME280;8773;43.300;0.394;2023-03-04T06:26:14;100425.97;;;6.51;63.97
17311;BME280;8773;43.300;0.394;2023-03-04T06:28:44;100428.91;;;6.59;62.77
17311;BME280;8773;43.300;0.394;2023-03-04T06:31:12;100446.16;;;6.40;63.36
17311;BME280;8773;43.300;0.394;2023-03-04T06:33:40;100445.06;;;6.56;63.22
17311;BME280;8773;43.300;0.394;2023-03-04T06:36:08;100447.03;;;6.65;62.75
17311;BME280;8773;43.300;0.394;2023-03-04T06:38:36;100455.19;;;6.74;63.26
17311;BME280;8773;43.300;0.394;2023-03-04T06:41:06;100457.25;;;6.82;61.82
17311;BME280;8773;43.300;0.394;2023-03-04T06:43:35;100462.19;;;6.75;61.95
17311;BME280;8773;43.300;0.394;2023-03-04T06:46:05;100467.19;;;6.43;63.46
17311;BME280;8773;43.300;0.394;2023-03-04T06:48:35;100473.53;;;6.41;63.68
17311;BME280;8773;43.300;0.394;2023-03-04T06:51:05;100471.63;;;6.43;64.13
17311;BME280;8773;43.300;0.394;2023-03-04T06:53:37;100477.47;;;6.35;63.97
17311;BME280;8773;43.300;0.394;2023-03-04T06:56:07;100479.88;;;6.51;63.15
17311;BME280;8773;43.300;0.394;2023-03-04T06:58:36;100485.78;;;6.67;62.98
17311;BME280;8773;43.300;0.394;2023-03-04T07:01:16;100481.47;;;6.77;62.49
17311;BME280;8773;43.300;0.394;2023-03-04T07:03:45;100483.63;;;6.72;62.28
17311;BME280;8773;43.300;0.394;2023-03-04T07:06:15;100488.88;;;6.61;62.70
17311;BME280;8773;43.300;0.394;2023-03-04T07:08:47;100494.19;;;6.61;62.37
17311;BME280;8773;43.300;0.394;2023-03-04T07:11:16;100491.38;;;6.75;62.86
17311;BME280;8773;43.300;0.394;2023-03-04T07:13:46;100500.13;;;6.65;62.33
17311;BME280;8773;43.300;0.394;2023-03-04T07:16:19;100496.53;;;6.40;63.24
17311;BME280;8773;43.300;0.394;2023-03-04T07:18:50;100501.53;;;6.58;63.93
17311;BME280;8773;43.300;0.394;2023-03-04T07:21:19;100506.31;;;6.53;64.01
17311;BME280;8773;43.300;0.394;2023-03-04T07:23:47;100506.56;;;6.73;63.36
17311;BME280;8773;43.300;0.394;2023-03-04T07:26:15;100510.53;;;6.79;62.67
17311;BME280;8773;43.300;0.394;2023-03-04T07:28:43;100514.78;;;6.58;63.76
17311;BME280;8773;43.300;0.394;2023-03-04T07:31:12;100515.75;;;6.57;63.39
17311;BME280;8773;43.300;0.394;2023-03-04T07:33:47;100513.44;;;6.76;63.25
17311;BME280;8773;43.300;0.394;2023-03-04T07:36:15;100509.41;;;6.94;62.66
17311;BME280;8773;43.300;0.394;2023-03-04T07:38:48;100512.78;;;7.20;63.23
17311;BME280;8773;43.300;0.394;2023-03-04T07:41:17;100512.47;;;7.36;62.21
17311;BME280;8773;43.300;0.394;2023-03-04T07:43:45;100511.78;;;7.45;61.71
17311;BME280;8773;43.300;0.394;2023-03-04T07:46:13;100504.56;;;7.58;61.06
17311;BME280;8773;43.300;0.394;2023-03-04T07:48:42;100504.56;;;7.58;60.97
17311;BME280;8773;43.300;0.394;2023-03-04T07:51:13;100512.78;;;7.66;60.97
17311;BME280;8773;43.300;0.394;2023-03-04T07:53:43;100509.16;;;7.78;61.28
17311;BME280;8773;43.300;0.394;2023-03-04T07:56:14;100516.56;;;7.86;60.08
17311;BME280;8773;43.300;0.394;2023-03-04T07:58:42;100507.22;;;7.58;60.77
17311;BME280;8773;43.300;0.394;2023-03-04T08:01:15;100509.53;;;7.74;59.67
17311;BME280;8773;43.300;0.394;2023-03-04T08:03:44;100513.78;;;7.88;59.19
17311;BME280;8773;43.300;0.394;2023-03-04T08:06:16;100520.28;;;7.84;59.87
17311;BME280;8773;43.300;0.394;2023-03-04T08:08:45;100527.91;;;7.88;59.90
17311;BME280;8773;43.300;0.394;2023-03-04T08:11:15;100526.00;;;7.90;59.48
17311;BME280;8773;43.300;0.394;2023-03-04T08:13:44;100516.44;;;7.99;59.32
17311;BME280;8773;43.300;0.394;2023-03-04T08:16:12;100519.56;;;8.15;58.68
17311;BME280;8773;43.300;0.394;2023-03-04T08:18:42;100519.09;;;8.21;57.97
17311;BME280;8773;43.300;0.394;2023-03-04T08:21:11;100515.13;;;8.38;57.83
17311;BME280;8773;43.300;0.394;2023-03-04T08:23:42;100515.06;;;8.60;57.50
17311;BME280;8773;43.300;0.394;2023-03-04T08:26:12;100515.97;;;8.38;56.68
17311;BME280;8773;43.300;0.394;2023-03-04T08:28:40;100513.06;;;8.30;57.35
17311;BME280;8773;43.300;0.394;2023-03-04T08:31:08;100516.78;;;8.61;56.79
17311;BME280;8773;43.300;0.394;2023-03-04T08:33:37;100511.28;;;8.85;56.74
17311;BME280;8773;43.300;0.394;2023-03-04T08:36:06;100509.97;;;8.80;56.50
17311;BME280;8773;43.300;0.394;2023-03-04T08:38:34;100518.28;;;8.86;56.89
17311;BME280;8773;43.300;0.394;2023-03-04T08:41:04;100511.56;;;9.03;56.38
17311;BME280;8773;43.300;0.394;2023-03-04T08:43:32;100511.97;;;9.19;55.74
17311;BME280;8773;43.300;0.394;2023-03-04T08:46:01;100512.69;;;9.42;54.80
17311;BME280;8773;43.300;0.394;2023-03-04T08:48:30;100521.66;;;9.41;53.46
17311;BME280;8773;43.300;0.394;2023-03-04T08:50:59;100516.94;;;9.44;53.52
17311;BME280;8773;43.300;0.394;2023-03-04T08:53:27;100516.81;;;9.67;53.63
17311;BME280;8773;43.300;0.394;2023-03-04T08:55:55;100515.44;;;9.72;52.76
17311;BME280;8773;43.300;0.394;2023-03-04T08:58:24;100516.91;;;9.86;51.87
17311;BME280;8773;43.300;0.394;2023-03-04T09:00:52;100513.53;;;10.05;51.75
17311;BME280;8773;43.300;0.394;2023-03-04T09:03:20;100512.59;;;10.16;50.74
17311;BME280;8773;43.300;0.394;2023-03-04T09:05:48;100512.47;;;10.27;50.73
17311;BME280;8773;43.300;0.394;2023-03-04T09:08:19;100506.47;;;10.34;50.16
17311;BME280;8773;43.300;0.394;2023-03-04T09:10:52;100513.25;;;10.48;49.35
17311;BME280;8773;43.300;0.394;2023-03-04T09:13:21;100513.22;;;10.38;46.14
17311;BME280;8773;43.300;0.394;2023-03-04T09:15:53;100514.38;;;10.46;47.82
17311;BME280;8773;43.300;0.394;2023-03-04T09:18:26;100506.25;;;10.66;47.32
17311;BME280;8773;43.300;0.394;2023-03-04T09:20:54;100505.47;;;10.85;46.23
17311;BME280;8773;43.300;0.394;2023-03-04T09:23:23;100510.25;;;10.91;44.28
17311;BME280;8773;43.300;0.394;2023-03-04T09:25:51;100522.31;;;10.76;43.99
17311;BME280;8773;43.300;0.394;2023-03-04T09:28:21;100518.13;;;10.83;42.70
17311;BME280;8773;43.300;0.394;2023-03-04T09:30:49;100523.16;;;10.76;40.72
17311;BME280;8773;43.300;0.394;2023-03-04T09:33:19;100518.41;;;10.90;41.23
17311;BME280;8773;43.300;0.394;2023-03-04T09:35:47;100518.63;;;10.67;40.57
17311;BME280;8773;43.300;0.394;2023-03-04T09:38:15;100509.94;;;10.75;40.43
17311;BME280;8773;43.300;0.394;2023-03-04T09:40:46;100507.16;;;10.86;40.28
17311;BME280;8773;43.300;0.394;2023-03-04T09:43:19;100511.09;;;10.92;39.38
17311;BME280;8773;43.300;0.394;2023-03-04T09:45:51;100510.66;;;10.77;38.30
17311;BME280;8773;43.300;0.394;2023-03-04T09:48:24;100509.97;;;10.85;38.77
17311;BME280;8773;43.300;0.394;2023-03-04T09:51:05;100517.56;;;10.89;37.71
17311;BME280;8773;43.300;0.394;2023-03-04T09:53:42;100511.22;;;10.90;38.06
17311;BME280;8773;43.300;0.394;2023-03-04T09:56:14;100507.44;;;10.83;37.89
17311;BME280;8773;43.300;0.394;2023-03-04T09:58:49;100515.75;;;10.99;37.76
17311;BME280;8773;43.300;0.394;2023-03-04T10:01:29;100511.38;;;10.98;37.72
17311;BME280;8773;43.300;0.394;2023-03-04T10:04:02;100514.34;;;10.95;37.59
17311;BME280;8773;43.300;0.394;2023-03-04T10:06:35;100516.03;;;10.96;37.68
17311;BME280;8773;43.300;0.394;2023-03-04T10:09:05;100510.56;;;11.07;38.53
17311;BME280;8773;43.300;0.394;2023-03-04T10:11:40;100504.91;;;11.10;37.12
17311;BME280;8773;43.300;0.394;2023-03-04T10:17:04;100504.63;;;11.14;37.50
17311;BME280;8773;43.300;0.394;2023-03-04T10:19:48;100503.50;;;10.97;35.92
17311;BME280;8773;43.300;0.394;2023-03-04T10:22:23;100503.09;;;10.92;37.48
17311;BME280;8773;43.300;0.394;2023-03-04T10:24:55;100501.38;;;10.81;37.01
17311;BME280;8773;43.300;0.394;2023-03-04T10:27:24;100506.75;;;10.31;38.36
17311;BME280;8773;43.300;0.394;2023-03-04T10:29:52;100513.91;;;10.90;38.99
17311;BME280;8773;43.300;0.394;2023-03-04T10:32:20;100516.00;;;11.16;38.10
17311;BME280;8773;43.300;0.394;2023-03-04T10:34:50;100510.72;;;11.35;38.75
17311;BME280;8773;43.300;0.394;2023-03-04T10:37:18;100504.38;;;11.26;38.35
17311;BME280;8773;43.300;0.394;2023-03-04T10:39:48;100491.28;;;11.52;38.68
17311;BME280;8773;43.300;0.394;2023-03-04T10:42:27;100494.75;;;11.62;37.52
17311;BME280;8773;43.300;0.394;2023-03-04T10:45:05;100504.78;;;11.31;36.57
17311;BME280;8773;43.300;0.394;2023-03-04T10:47:51;100504.19;;;11.66;36.62
17311;BME280;8773;43.300;0.394;2023-03-04T10:50:23;100487.78;;;11.89;35.67
17311;BME280;8773;43.300;0.394;2023-03-04T10:52:54;100488.06;;;11.95;36.81
17311;BME280;8773;43.300;0.394;2023-03-04T10:55:27;100485.66;;;12.29;35.86
17311;BME280;8773;43.300;0.394;2023-03-04T10:58:00;100486.41;;;12.12;34.08
17311;BME280;8773;43.300;0.394;2023-03-04T11:00:30;100482.03;;;11.84;35.86
17311;BME280;8773;43.300;0.394;2023-03-04T11:03:27;100485.09;;;11.03;36.43
17311;BME280;8773;43.300;0.394;2023-03-04T11:06:21;100475.50;;;11.49;36.69
17311;BME280;8773;43.300;0.394;2023-03-04T11:08:53;100471.44;;;11.92;36.73
17311;BME280;8773;43.300;0.394;2023-03-04T11:11:23;100469.06;;;11.89;35.28
17311;BME280;8773;43.300;0.394;2023-03-04T11:13:55;100471.94;;;11.58;36.23
17311;BME280;8773;43.300;0.394;2023-03-04T11:16:27;100469.47;;;11.94;35.70
17311;BME280;8773;43.300;0.394;2023-03-04T11:18:59;100468.19;;;12.25;35.68
17311;BME280;8773;43.300;0.394;2023-03-04T11:21:37;100465.31;;;12.36;35.93
17311;BME280;8773;43.300;0.394;2023-03-04T11:24:12;100462.53;;;12.28;34.38
17311;BME280;8773;43.300;0.394;2023-03-04T11:26:58;100463.06;;;12.04;34.45
17311;BME280;8773;43.300;0.394;2023-03-04T11:29:30;100463.63;;;12.08;34.93
17311;BME280;8773;43.300;0.394;2023-03-04T11:32:05;100459.09;;;12.08;34.49
17311;BME280;8773;43.300;0.394;2023-03-04T11:34:39;100458.91;;;11.92;35.29
17311;BME280;8773;43.300;0.394;2023-03-04T11:37:17;100451.63;;;12.12;35.52
17311;BME280;8773;43.300;0.394;2023-03-04T11:39:51;100445.97;;;12.15;34.81
17311;BME280;8773;43.300;0.394;2023-03-04T11:42:27;100438.69;;;11.70;35.24
17311;BME280;8773;43.300;0.394;2023-03-04T11:44:58;100435.31;;;12.05;35.72
17311;BME280;8773;43.300;0.394;2023-03-04T11:47:38;100429.47;;;12.20;36.42
17311;BME280;8773;43.300;0.394;2023-03-04T11:50:22;100427.53;;;12.12;35.66
17311;BME280;8773;43.300;0.394;2023-03-04T11:53:16;100423.56;;;12.16;35.65
17311;BME280;8773;43.300;0.394;2023-03-04T11:55:57;100420.75;;;12.18;35.17
17311;BME280;8773;43.300;0.394;2023-03-04T11:58:56;100421.44;;;11.55;35.78
17311;BME280;8773;43.300;0.394;2023-03-04T12:01:32;100421.78;;;11.14;35.48
17311;BME280;8773;43.300;0.394;2023-03-04T12:04:19;100414.25;;;11.56;36.05
17311;BME280;8773;43.300;0.394;2023-03-04T12:07:05;100412.53;;;11.64;35.20
17311;BME280;8773;43.300;0.394;2023-03-04T12:09:43;100412.53;;;11.64;34.15
17311;BME280;8773;43.300;0.394;2023-03-04T12:12:26;100417.66;;;10.13;37.14
17311;BME280;8773;43.300;0.394;2023-03-04T12:15:04;100405.06;;;10.92;37.90
17311;BME280;8773;43.300;0.394;2023-03-04T12:17:45;100386.97;;;11.52;35.94
17311;BME280;8773;43.300;0.394;2023-03-04T12:20:33;100389.22;;;11.84;36.01
17311;BME280;8773;43.300;0.394;2023-03-04T12:23:18;100362.03;;;11.89;35.59
17311;BME280;8773;43.300;0.394;2023-03-04T12:25:56;100377.25;;;12.33;35.09
17311;BME280;8773;43.300;0.394;2023-03-04T12:28:39;100369.78;;;12.55;34.22
17311;BME280;8773;43.300;0.394;2023-03-04T12:31:40;100374.13;;;12.56;33.09
17311;BME280;8773;43.300;0.394;2023-03-04T12:34:28;100362.78;;;12.44;33.66
17311;BME280;8773;43.300;0.394;2023-03-04T12:37:23;100357.56;;;12.42;34.13
17311;BME280;8773;43.300;0.394;2023-03-04T12:40:13;100352.44;;;12.49;33.84
17311;BME280;8773;43.300;0.394;2023-03-04T12:42:57;100351.75;;;12.47;33.00
17311;BME280;8773;43.300;0.394;2023-03-04T12:45:32;100347.84;;;12.41;34.40
17311;BME280;8773;43.300;0.394;2023-03-04T12:48:10;100330.16;;;12.13;35.06
17311;BME280;8773;43.300;0.394;2023-03-04T12:50:52;100341.19;;;12.10;34.71
17311;BME280;8773;43.300;0.394;2023-03-04T12:53:29;100331.00;;;11.96;35.90
17311;BME280;8773;43.300;0.394;2023-03-04T12:56:02;100327.69;;;12.02;34.77
17311;BME280;8773;43.300;0.394;2023-03-04T12:58:36;100332.03;;;12.30;34.81
17311;BME280;8773;43.300;0.394;2023-03-04T13:01:10;100325.28;;;12.26;35.14
17311;BME280;8773;43.300;0.394;2023-03-04T13:03:52;100315.28;;;11.56;34.82
17311;BME280;8773;43.300;0.394;2023-03-04T13:06:42;100312.09;;;11.05;37.81
17311;BME280;8773;43.300;0.394;2023-03-04T13:09:18;100317.25;;;11.17;37.19
17311;BME280;8773;43.300;0.394;2023-03-04T13:11:55;100314.25;;;11.66;35.62
17311;BME280;8773;43.300;0.394;2023-03-04T13:14:32;100306.44;;;12.00;36.42
17311;BME280;8773;43.300;0.394;2023-03-04T13:19:54;100298.22;;;12.29;35.29
17311;BME280;8773;43.300;0.394;2023-03-04T13:25:31;100286.94;;;12.43;33.70
17311;BME280;8773;43.300;0.394;2023-03-04T13:28:11;100285.59;;;12.57;34.19
17311;BME280;8773;43.300;0.394;2023-03-04T13:31:05;100283.13;;;12.64;34.03
17311;BME280;8773;43.300;0.394;2023-03-04T13:36:55;100269.56;;;12.48;34.51
17311;BME280;8773;43.300;0.394;2023-03-04T13:39:29;100269.59;;;12.30;35.15
17311;BME280;8773;43.300;0.394;2023-03-04T13:41:58;100265.38;;;12.63;34.18